Caswell, Maine
Current Conditions -  °F | °C
As of 7:32 PM on Saturday 25 Oct 2014 (Local Time) from KCAR Reporting Station
Overcast Overcast  
Wind Chill: 42°   Ceiling: 500
Heat Index: 42°   Visibility: 10mi
Dew Point: 41°   Wind: 0mph
Humidity: 96%   Direction: NA
Pressure: 29.53"   Gusts: NA
Location:  46.9626°N, 67.8576°W
Report Text: KCAR 252332Z AUTO 00000KT 10SM OVC005 06/05 A2953 RMK AO2 CIG 003V007 T00560050 $
Loading
Personal Weather Stations






























Interactive Weather Map
Tropical Storm Tracking
New forecast layout! Learn more

10-Day Weather Forecast

Advertisements
Track Severe Weather on mobile